sensor_id;sensor_type;location;lat;lon;timestamp;P1;durP1;ratioP1;P2;durP2;ratioP2
18627;SDS011;9443;50.888;10.728;2022-09-29T00:06:48;3.57;;;2.83;;
18627;SDS011;9443;50.888;10.728;2022-09-29T00:16:48;3.13;;;2.80;;
18627;SDS011;9443;50.888;10.728;2022-09-29T00:26:49;3.43;;;2.97;;
18627;SDS011;9443;50.888;10.728;2022-09-29T00:36:49;4.70;;;3.30;;
18627;SDS011;9443;50.888;10.728;2022-09-29T00:46:51;4.90;;;3.10;;
18627;SDS011;9443;50.888;10.728;2022-09-29T00:56:54;5.13;;;3.73;;
18627;SDS011;9443;50.888;10.728;2022-09-29T01:06:56;4.83;;;3.40;;
18627;SDS011;9443;50.888;10.728;2022-09-29T01:16:57;7.03;;;3.37;;
18627;SDS011;9443;50.888;10.728;2022-09-29T01:27:12;3.50;;;3.00;;
18627;SDS011;9443;50.888;10.728;2022-09-29T01:47:33;4.50;;;3.27;;
18627;SDS011;9443;50.888;10.728;2022-09-29T01:57:58;4.23;;;3.60;;
18627;SDS011;9443;50.888;10.728;2022-09-29T02:08:11;7.07;;;4.53;;
18627;SDS011;9443;50.888;10.728;2022-09-29T02:18:25;5.77;;;3.33;;
18627;SDS011;9443;50.888;10.728;2022-09-29T02:28:29;3.63;;;2.83;;
18627;SDS011;9443;50.888;10.728;2022-09-29T02:38:34;4.40;;;3.43;;
18627;SDS011;9443;50.888;10.728;2022-09-29T02:59:11;4.90;;;3.50;;
18627;SDS011;9443;50.888;10.728;2022-09-29T03:09:14;5.80;;;3.23;;
18627;SDS011;9443;50.888;10.728;2022-09-29T03:19:14;4.23;;;3.37;;
18627;SDS011;9443;50.888;10.728;2022-09-29T03:29:15;5.70;;;4.40;;
18627;SDS011;9443;50.888;10.728;2022-09-29T03:39:15;5.17;;;3.90;;
18627;SDS011;9443;50.888;10.728;2022-09-29T03:49:15;5.10;;;3.33;;
18627;SDS011;9443;50.888;10.728;2022-09-29T03:59:17;6.07;;;3.87;;
18627;SDS011;9443;50.888;10.728;2022-09-29T04:09:17;6.20;;;3.50;;
18627;SDS011;9443;50.888;10.728;2022-09-29T04:19:17;4.70;;;3.40;;
18627;SDS011;9443;50.888;10.728;2022-09-29T04:29:17;5.27;;;3.97;;
18627;SDS011;9443;50.888;10.728;2022-09-29T04:39:18;6.17;;;3.93;;
18627;SDS011;9443;50.888;10.728;2022-09-29T04:49:18;4.77;;;3.30;;
18627;SDS011;9443;50.888;10.728;2022-09-29T04:59:19;5.33;;;3.47;;
18627;SDS011;9443;50.888;10.728;2022-09-29T05:09:19;5.50;;;3.70;;
18627;SDS011;9443;50.888;10.728;2022-09-29T05:19:19;6.67;;;2.70;;
18627;SDS011;9443;50.888;10.728;2022-09-29T05:29:20;5.10;;;3.50;;
18627;SDS011;9443;50.888;10.728;2022-09-29T05:39:20;6.30;;;3.40;;
18627;SDS011;9443;50.888;10.728;2022-09-29T05:49:20;4.77;;;3.53;;
18627;SDS011;9443;50.888;10.728;2022-09-29T05:59:22;6.17;;;3.47;;
18627;SDS011;9443;50.888;10.728;2022-09-29T06:09:22;7.97;;;5.93;;
18627;SDS011;9443;50.888;10.728;2022-09-29T06:19:22;7.20;;;5.10;;
18627;SDS011;9443;50.888;10.728;2022-09-29T06:29:23;8.67;;;5.30;;
18627;SDS011;9443;50.888;10.728;2022-09-29T06:39:23;8.63;;;5.77;;
18627;SDS011;9443;50.888;10.728;2022-09-29T06:49:24;14.53;;;9.10;;
18627;SDS011;9443;50.888;10.728;2022-09-29T06:59:24;9.20;;;4.87;;
18627;SDS011;9443;50.888;10.728;2022-09-29T07:09:24;5.80;;;5.20;;
18627;SDS011;9443;50.888;10.728;2022-09-29T07:19:25;6.67;;;4.67;;
18627;SDS011;9443;50.888;10.728;2022-09-29T07:29:25;5.97;;;4.40;;
18627;SDS011;9443;50.888;10.728;2022-09-29T07:39:26;6.53;;;4.50;;
18627;SDS011;9443;50.888;10.728;2022-09-29T07:49:26;11.33;;;6.00;;
18627;SDS011;9443;50.888;10.728;2022-09-29T07:59:27;11.03;;;5.03;;
18627;SDS011;9443;50.888;10.728;2022-09-29T08:09:27;5.40;;;4.33;;
18627;SDS011;9443;50.888;10.728;2022-09-29T08:19:27;4.97;;;3.90;;
18627;SDS011;9443;50.888;10.728;2022-09-29T08:29:28;7.23;;;4.70;;
18627;SDS011;9443;50.888;10.728;2022-09-29T08:39:28;5.80;;;4.50;;
18627;SDS011;9443;50.888;10.728;2022-09-29T08:49:30;6.73;;;4.00;;
18627;SDS011;9443;50.888;10.728;2022-09-29T08:59:38;6.37;;;2.87;;
18627;SDS011;9443;50.888;10.728;2022-09-29T09:19:54;5.13;;;3.13;;
18627;SDS011;9443;50.888;10.728;2022-09-29T09:30:04;4.90;;;2.80;;
18627;SDS011;9443;50.888;10.728;2022-09-29T09:40:19;3.20;;;2.20;;
18627;SDS011;9443;50.888;10.728;2022-09-29T09:50:23;4.23;;;2.90;;
18627;SDS011;9443;50.888;10.728;2022-09-29T10:00:24;5.63;;;2.90;;
18627;SDS011;9443;50.888;10.728;2022-09-29T10:10:28;4.20;;;2.67;;
18627;SDS011;9443;50.888;10.728;2022-09-29T10:20:33;4.90;;;2.53;;
18627;SDS011;9443;50.888;10.728;2022-09-29T10:30:35;5.17;;;3.53;;
18627;SDS011;9443;50.888;10.728;2022-09-29T10:40:35;4.87;;;3.23;;
18627;SDS011;9443;50.888;10.728;2022-09-29T10:50:37;6.00;;;3.23;;
18627;SDS011;9443;50.888;10.728;2022-09-29T11:00:48;9.33;;;4.40;;
18627;SDS011;9443;50.888;10.728;2022-09-29T11:10:49;4.93;;;3.43;;
18627;SDS011;9443;50.888;10.728;2022-09-29T11:31:31;4.57;;;2.83;;
18627;SDS011;9443;50.888;10.728;2022-09-29T12:02:49;2.13;;;1.93;;
18627;SDS011;9443;50.888;10.728;2022-09-29T12:23:12;3.03;;;2.17;;
18627;SDS011;9443;50.888;10.728;2022-09-29T12:33:15;4.57;;;2.60;;
18627;SDS011;9443;50.888;10.728;2022-09-29T12:43:57;4.20;;;2.30;;
18627;SDS011;9443;50.888;10.728;2022-09-29T12:54:23;4.27;;;2.80;;
18627;SDS011;9443;50.888;10.728;2022-09-29T13:15:03;4.73;;;2.77;;
18627;SDS011;9443;50.888;10.728;2022-09-29T13:25:32;6.00;;;2.50;;
18627;SDS011;9443;50.888;10.728;2022-09-29T13:35:39;3.83;;;2.33;;
18627;SDS011;9443;50.888;10.728;2022-09-29T13:45:42;6.93;;;2.43;;
18627;SDS011;9443;50.888;10.728;2022-09-29T13:55:50;4.37;;;2.10;;
18627;SDS011;9443;50.888;10.728;2022-09-29T14:05:53;2.70;;;1.80;;
18627;SDS011;9443;50.888;10.728;2022-09-29T14:26:42;6.63;;;2.37;;
18627;SDS011;9443;50.888;10.728;2022-09-29T14:36:45;4.90;;;1.90;;
18627;SDS011;9443;50.888;10.728;2022-09-29T14:46:53;5.17;;;2.27;;
18627;SDS011;9443;50.888;10.728;2022-09-29T15:07:38;3.73;;;2.10;;
18627;SDS011;9443;50.888;10.728;2022-09-29T15:27:50;4.50;;;3.03;;
18627;SDS011;9443;50.888;10.728;2022-09-29T15:37:54;4.17;;;2.50;;
18627;SDS011;9443;50.888;10.728;2022-09-29T15:48:00;4.57;;;3.17;;
18627;SDS011;9443;50.888;10.728;2022-09-29T15:58:32;12.33;;;5.17;;
18627;SDS011;9443;50.888;10.728;2022-09-29T16:08:26;10.37;;;3.97;;
18627;SDS011;9443;50.888;10.728;2022-09-29T16:18:38;7.07;;;3.57;;
18627;SDS011;9443;50.888;10.728;2022-09-29T16:28:57;5.10;;;2.00;;
18627;SDS011;9443;50.888;10.728;2022-09-29T16:39:08;2.93;;;2.20;;
18627;SDS011;9443;50.888;10.728;2022-09-29T16:49:19;16.90;;;6.40;;
18627;SDS011;9443;50.888;10.728;2022-09-29T16:59:25;27.23;;;8.90;;
18627;SDS011;9443;50.888;10.728;2022-09-29T17:09:25;13.43;;;5.37;;
18627;SDS011;9443;50.888;10.728;2022-09-29T17:19:26;10.60;;;4.10;;
18627;SDS011;9443;50.888;10.728;2022-09-29T17:29:26;6.57;;;3.40;;
18627;SDS011;9443;50.888;10.728;2022-09-29T17:39:26;7.70;;;4.60;;
18627;SDS011;9443;50.888;10.728;2022-09-29T17:49:27;11.40;;;5.33;;
18627;SDS011;9443;50.888;10.728;2022-09-29T17:59:28;16.07;;;6.93;;
18627;SDS011;9443;50.888;10.728;2022-09-29T18:09:30;15.50;;;7.33;;
18627;SDS011;9443;50.888;10.728;2022-09-29T18:19:31;7.03;;;4.07;;
18627;SDS011;9443;50.888;10.728;2022-09-29T18:29:39;4.30;;;3.87;;
18627;SDS011;9443;50.888;10.728;2022-09-29T18:39:39;3.90;;;3.03;;
18627;SDS011;9443;50.888;10.728;2022-09-29T18:49:39;4.70;;;4.17;;
18627;SDS011;9443;50.888;10.728;2022-09-29T18:59:39;3.50;;;3.10;;
18627;SDS011;9443;50.888;10.728;2022-09-29T19:09:40;16.23;;;9.03;;
18627;SDS011;9443;50.888;10.728;2022-09-29T19:19:40;12.00;;;8.97;;
18627;SDS011;9443;50.888;10.728;2022-09-29T19:29:41;9.07;;;6.77;;
18627;SDS011;9443;50.888;10.728;2022-09-29T19:39:41;7.83;;;6.67;;
18627;SDS011;9443;50.888;10.728;2022-09-29T19:49:42;7.23;;;4.53;;
18627;SDS011;9443;50.888;10.728;2022-09-29T19:59:43;5.87;;;4.00;;
18627;SDS011;9443;50.888;10.728;2022-09-29T20:09:43;5.97;;;4.60;;
18627;SDS011;9443;50.888;10.728;2022-09-29T20:19:43;8.87;;;5.50;;
18627;SDS011;9443;50.888;10.728;2022-09-29T20:29:46;12.03;;;6.07;;
18627;SDS011;9443;50.888;10.728;2022-09-29T20:39:47;7.57;;;4.63;;
18627;SDS011;9443;50.888;10.728;2022-09-29T20:49:49;9.87;;;4.83;;
18627;SDS011;9443;50.888;10.728;2022-09-29T20:59:49;8.17;;;4.53;;
18627;SDS011;9443;50.888;10.728;2022-09-29T21:09:50;7.93;;;3.83;;
18627;SDS011;9443;50.888;10.728;2022-09-29T21:19:51;5.60;;;3.70;;
18627;SDS011;9443;50.888;10.728;2022-09-29T21:29:51;4.23;;;3.33;;
18627;SDS011;9443;50.888;10.728;2022-09-29T21:39:52;5.37;;;3.00;;
18627;SDS011;9443;50.888;10.728;2022-09-29T21:49:52;5.33;;;3.03;;
18627;SDS011;9443;50.888;10.728;2022-09-29T21:59:55;4.40;;;3.13;;
18627;SDS011;9443;50.888;10.728;2022-09-29T22:09:55;5.57;;;2.90;;
18627;SDS011;9443;50.888;10.728;2022-09-29T22:19:55;3.13;;;2.57;;
18627;SDS011;9443;50.888;10.728;2022-09-29T22:29:58;3.87;;;2.87;;
18627;SDS011;9443;50.888;10.728;2022-09-29T22:40:02;4.83;;;2.50;;
18627;SDS011;9443;50.888;10.728;2022-09-29T22:50:04;5.07;;;2.53;;
18627;SDS011;9443;50.888;10.728;2022-09-29T23:00:05;5.43;;;2.50;;
18627;SDS011;9443;50.888;10.728;2022-09-29T23:10:06;3.40;;;2.70;;
18627;SDS011;9443;50.888;10.728;2022-09-29T23:20:08;5.50;;;3.07;;
18627;SDS011;9443;50.888;10.728;2022-09-29T23:30:09;3.20;;;2.37;;
18627;SDS011;9443;50.888;10.728;2022-09-29T23:40:10;4.13;;;2.67;;
18627;SDS011;9443;50.888;10.728;2022-09-29T23:50:10;3.70;;;2.67;;
